createdAt,value
2023-02-11T00:00:41.768Z,48.53
2023-02-11T00:03:08.659Z,44.00
2023-02-11T00:05:35.264Z,47.42
2023-02-11T00:08:01.712Z,45.03
2023-02-11T00:10:28.136Z,44.58
2023-02-11T00:12:54.589Z,45.70
2023-02-11T00:15:21.291Z,41.63
2023-02-11T00:17:47.714Z,39.08
2023-02-11T00:20:14.182Z,36.97
2023-02-11T00:22:40.632Z,40.95
2023-02-11T00:25:07.178Z,34.97
2023-02-11T00:27:33.625Z,38.22
2023-02-11T00:30:02.253Z,36.28
2023-02-11T00:32:28.756Z,34.50
2023-02-11T00:34:55.464Z,32.20
2023-02-11T00:37:22.426Z,38.58
2023-02-11T00:39:50.130Z,32.75
2023-02-11T00:42:16.919Z,34.22
2023-02-11T00:44:43.513Z,33.90
2023-02-11T00:47:09.950Z,35.50
2023-02-11T00:49:36.920Z,35.50
2023-02-11T00:52:03.585Z,34.63
2023-02-11T00:54:30.128Z,36.80
2023-02-11T00:56:56.557Z,37.88
2023-02-11T00:59:23.016Z,39.17
2023-02-11T01:01:49.509Z,38.80
2023-02-11T01:04:16.049Z,39.58
2023-02-11T01:06:42.560Z,38.17
2023-02-11T01:09:08.976Z,36.88
2023-02-11T01:11:35.700Z,38.85
2023-02-11T01:14:02.404Z,38.33
2023-02-11T01:16:28.805Z,36.00
2023-02-11T01:18:55.223Z,33.88
2023-02-11T01:21:21.695Z,37.28
2023-02-11T01:23:48.176Z,33.28
2023-02-11T01:26:14.590Z,33.72
2023-02-11T01:28:41.153Z,31.38
2023-02-11T01:31:07.658Z,31.58
2023-02-11T01:33:34.208Z,28.83
2023-02-11T01:36:03.160Z,30.70
2023-02-11T01:38:29.623Z,31.15
2023-02-11T01:41:02.660Z,30.20
2023-02-11T01:43:32.785Z,31.25
2023-02-11T01:46:05.509Z,33.25
2023-02-11T01:48:38.267Z,34.05
2023-02-11T01:51:09.143Z,34.80
2023-02-11T01:53:54.864Z,29.67
2023-02-11T01:56:39.882Z,31.98
2023-02-11T01:59:13.323Z,34.65
2023-02-11T02:01:40.666Z,34.58
2023-02-11T02:04:08.343Z,39.17
2023-02-11T02:06:44.533Z,36.47
2023-02-11T02:09:22.224Z,35.30
2023-02-11T02:11:49.039Z,37.15
2023-02-11T02:14:15.459Z,36.13
2023-02-11T02:16:41.968Z,37.15
2023-02-11T02:19:36.323Z,37.83
2023-02-11T02:22:22.182Z,34.72
2023-02-11T02:24:56.572Z,34.13
2023-02-11T02:27:41.583Z,31.80
2023-02-11T02:30:17.313Z,34.55
2023-02-11T02:33:16.761Z,37.28
2023-02-11T02:35:56.042Z,40.65
2023-02-11T02:38:34.794Z,42.10
2023-02-11T02:41:10.167Z,38.70
2023-02-11T02:43:42.102Z,35.70
2023-02-11T02:46:14.661Z,37.65
2023-02-11T02:48:41.309Z,35.53
2023-02-11T02:51:34.131Z,33.88
2023-02-11T02:54:20.749Z,31.13
2023-02-11T02:57:00.112Z,32.10
2023-02-11T02:59:46.500Z,32.30
2023-02-11T03:02:27.146Z,32.08
2023-02-11T03:04:56.869Z,34.03
2023-02-11T03:07:51.037Z,29.38
2023-02-11T03:10:21.726Z,31.83
2023-02-11T03:12:48.943Z,32.67
2023-02-11T03:15:17.239Z,33.95
2023-02-11T03:17:46.249Z,29.63
2023-02-11T03:20:14.777Z,31.08
2023-02-11T03:22:45.599Z,32.25
2023-02-11T03:25:12.022Z,31.58
2023-02-11T03:27:47.078Z,30.35
2023-02-11T03:30:18.003Z,32.03
2023-02-11T03:32:51.818Z,31.50
2023-02-11T03:35:23.173Z,29.00
2023-02-11T03:37:58.129Z,30.45
2023-02-11T03:40:34.526Z,30.85
2023-02-11T03:43:10.702Z,28.73
2023-02-11T03:45:37.766Z,28.80
2023-02-11T03:48:08.949Z,29.48
2023-02-11T03:50:36.367Z,30.60
2023-02-11T03:53:03.621Z,30.33
2023-02-11T03:55:30.809Z,30.85
2023-02-11T03:57:57.290Z,29.70
2023-02-11T04:00:36.450Z,28.33
2023-02-11T04:03:04.049Z,30.92
2023-02-11T04:05:30.492Z,33.30
2023-02-11T04:07:56.946Z,32.65
2023-02-11T04:10:23.413Z,39.05
2023-02-11T04:12:49.839Z,35.92
2023-02-11T04:15:16.403Z,34.00
2023-02-11T04:17:42.996Z,33.58
2023-02-11T04:20:09.923Z,37.28
2023-02-11T04:22:36.753Z,34.60
2023-02-11T04:25:04.451Z,36.85
2023-02-11T04:27:30.896Z,31.88
2023-02-11T04:29:57.277Z,37.67
2023-02-11T04:32:23.715Z,35.67
2023-02-11T04:34:50.192Z,35.22
2023-02-11T04:37:16.634Z,33.08
2023-02-11T04:39:43.175Z,37.05
2023-02-11T04:42:09.559Z,33.75
2023-02-11T04:44:35.949Z,31.02
2023-02-11T04:47:02.363Z,34.00
2023-02-11T04:49:31.490Z,32.42
2023-02-11T04:51:57.892Z,30.15
2023-02-11T04:54:24.412Z,35.53
2023-02-11T04:56:51.114Z,34.63
2023-02-11T04:59:17.605Z,37.60
2023-02-11T05:01:44.140Z,33.88
2023-02-11T05:04:10.725Z,36.50
2023-02-11T05:06:39.418Z,34.72
2023-02-11T05:09:05.886Z,37.13
2023-02-11T05:11:32.286Z,37.70
2023-02-11T05:13:58.681Z,34.47
2023-02-11T05:16:25.190Z,35.05
2023-02-11T05:18:52.690Z,32.15
2023-02-11T05:21:19.669Z,30.65
2023-02-11T05:23:46.446Z,31.42
2023-02-11T05:26:13.455Z,34.42
2023-02-11T05:28:40.242Z,34.35
2023-02-11T05:31:07.296Z,31.25
2023-02-11T05:33:33.934Z,31.48
2023-02-11T05:36:06.357Z,31.27
2023-02-11T05:38:33.312Z,31.50
2023-02-11T05:40:59.767Z,30.13
2023-02-11T05:43:26.260Z,31.58
2023-02-11T05:45:53.039Z,33.67
2023-02-11T05:48:19.813Z,31.40
2023-02-11T05:50:46.446Z,33.10
2023-02-11T05:53:12.970Z,33.45
2023-02-11T05:55:39.606Z,30.65
2023-02-11T05:58:06.725Z,27.58
2023-02-11T06:00:33.749Z,27.05
2023-02-11T06:03:00.307Z,27.85
2023-02-11T06:05:26.756Z,26.92
2023-02-11T06:07:53.330Z,26.58
2023-02-11T06:10:19.837Z,26.15
2023-02-11T06:12:46.338Z,27.45
2023-02-11T06:15:12.742Z,27.77
2023-02-11T06:17:39.146Z,27.25
2023-02-11T06:20:07.384Z,27.85
2023-02-11T06:22:35.052Z,31.25
2023-02-11T06:25:02.347Z,27.02
2023-02-11T06:27:29.665Z,27.27
2023-02-11T06:29:56.110Z,27.85
2023-02-11T06:32:42.177Z,26.48
2023-02-11T06:35:11.642Z,27.52
2023-02-11T06:37:38.425Z,26.20
2023-02-11T06:40:05.305Z,26.25
2023-02-11T06:42:31.790Z,25.08
2023-02-11T06:44:58.203Z,23.80
2023-02-11T06:47:24.627Z,24.10
2023-02-11T06:49:51.095Z,24.80
2023-02-11T06:52:17.555Z,24.42
2023-02-11T06:54:43.955Z,28.05
2023-02-11T06:57:10.367Z,24.00
2023-02-11T06:59:36.748Z,25.60
2023-02-11T07:02:03.274Z,25.73
2023-02-11T07:04:29.775Z,23.45
2023-02-11T07:06:56.194Z,26.40
2023-02-11T07:09:22.653Z,24.17
2023-02-11T07:11:49.126Z,22.20
2023-02-11T07:14:15.588Z,25.00
2023-02-11T07:16:41.994Z,26.15
2023-02-11T07:19:08.475Z,26.30
2023-02-11T07:21:35.039Z,24.73
2023-02-11T07:24:02.096Z,23.83
2023-02-11T07:26:29.212Z,24.85
2023-02-11T07:28:57.202Z,24.67
2023-02-11T07:31:25.995Z,28.85
2023-02-11T07:33:53.925Z,26.38
2023-02-11T07:36:21.056Z,28.13
2023-02-11T07:38:47.494Z,26.90
2023-02-11T07:41:16.540Z,26.40
2023-02-11T07:43:43.480Z,27.17
2023-02-11T07:46:21.791Z,27.05
2023-02-11T07:48:48.341Z,26.70
2023-02-11T07:51:31.061Z,25.00
2023-02-11T07:53:58.987Z,26.92
2023-02-11T07:56:25.997Z,27.02
2023-02-11T07:58:52.436Z,29.63
2023-02-11T08:01:25.374Z,25.48
2023-02-11T08:03:52.877Z,26.25
2023-02-11T08:06:20.640Z,23.60
2023-02-11T08:08:47.604Z,25.33
2023-02-11T08:11:16.963Z,23.17
2023-02-11T08:13:44.131Z,22.67
2023-02-11T08:16:19.222Z,26.45
2023-02-11T08:18:45.723Z,22.38
2023-02-11T08:21:12.336Z,24.63
2023-02-11T08:23:40.306Z,22.45
2023-02-11T08:26:10.452Z,22.83
2023-02-11T08:28:38.388Z,22.25
2023-02-11T08:31:15.771Z,22.05
2023-02-11T08:33:42.324Z,24.17
2023-02-11T08:36:10.498Z,22.02
2023-02-11T08:38:37.056Z,19.77
2023-02-11T08:41:04.986Z,21.13
2023-02-11T08:43:31.692Z,20.35
2023-02-11T08:46:00.153Z,19.75
2023-02-11T08:48:28.632Z,19.98
2023-02-11T08:50:56.045Z,18.20
2023-02-11T08:53:22.610Z,20.98
2023-02-11T08:55:54.046Z,19.42
2023-02-11T08:58:21.383Z,18.00
2023-02-11T09:00:49.293Z,18.30
2023-02-11T09:03:16.389Z,18.75
2023-02-11T09:05:48.163Z,18.88
2023-02-11T09:08:14.832Z,17.20
2023-02-11T09:10:41.471Z,18.42
2023-02-11T09:13:08.493Z,18.50
2023-02-11T09:15:35.185Z,20.35
2023-02-11T09:18:02.045Z,16.90
2023-02-11T09:20:28.467Z,19.63
2023-02-11T09:22:57.283Z,22.02
2023-02-11T09:25:23.949Z,18.90
2023-02-11T09:27:51.339Z,19.42
2023-02-11T09:30:17.896Z,17.83
2023-02-11T09:32:44.292Z,18.73
2023-02-11T09:35:10.724Z,19.85
2023-02-11T09:37:37.545Z,19.55
2023-02-11T09:40:04.678Z,20.75
2023-02-11T09:42:52.946Z,20.08
2023-02-11T09:45:24.916Z,20.20
2023-02-11T09:48:06.359Z,19.23
2023-02-11T09:50:40.123Z,18.52
2023-02-11T09:53:32.686Z,21.40
2023-02-11T09:56:02.246Z,20.25
2023-02-11T09:58:32.080Z,21.58
2023-02-11T10:01:27.418Z,21.58
2023-02-11T10:04:18.373Z,19.88
2023-02-11T10:06:48.261Z,20.60
2023-02-11T10:09:33.381Z,20.38
2023-02-11T10:12:21.778Z,18.88
2023-02-11T10:15:15.515Z,21.42
2023-02-11T10:18:14.178Z,23.70
2023-02-11T10:20:50.273Z,24.88
2023-02-11T10:23:21.487Z,23.85
2023-02-11T10:25:54.458Z,23.17
2023-02-11T10:28:34.793Z,22.00
2023-02-11T10:31:11.710Z,24.70
2023-02-11T10:34:11.791Z,24.27
2023-02-11T10:36:43.248Z,25.30
2023-02-11T10:39:16.113Z,21.35
2023-02-11T10:41:54.853Z,21.30
2023-02-11T10:44:27.542Z,20.67
2023-02-11T10:46:54.592Z,20.73
2023-02-11T10:49:41.930Z,21.15
2023-02-11T10:52:33.987Z,23.10
2023-02-11T10:55:15.298Z,22.00
2023-02-11T10:57:58.443Z,23.30
2023-02-11T11:00:36.333Z,23.50
2023-02-11T11:03:05.555Z,20.52
2023-02-11T11:05:36.656Z,21.60
2023-02-11T11:08:07.494Z,20.45
2023-02-11T11:10:43.565Z,23.40
2023-02-11T11:13:25.156Z,21.45
2023-02-11T11:16:13.108Z,19.88
2023-02-11T11:18:40.665Z,24.38
2023-02-11T11:21:12.282Z,23.33
2023-02-11T11:23:39.446Z,28.33
2023-02-11T11:26:15.189Z,32.60
2023-02-11T11:28:55.174Z,31.65
2023-02-11T11:31:24.784Z,29.42
2023-02-11T11:33:53.228Z,26.15
2023-02-11T11:36:31.992Z,24.58
2023-02-11T11:39:01.274Z,25.08
2023-02-11T11:41:30.913Z,30.80
2023-02-11T11:44:24.042Z,27.88
2023-02-11T11:47:04.787Z,32.00
2023-02-11T11:49:35.987Z,22.73
2023-02-11T11:52:19.851Z,23.15
2023-02-11T11:54:53.220Z,23.42
2023-02-11T11:57:23.509Z,24.17
2023-02-11T11:59:49.954Z,24.25
2023-02-11T12:02:22.686Z,21.20
2023-02-11T12:05:15.564Z,22.52
2023-02-11T12:07:54.123Z,21.48
2023-02-11T12:10:51.265Z,24.02
2023-02-11T12:13:26.999Z,21.05
2023-02-11T12:16:22.334Z,22.50
2023-02-11T12:18:57.955Z,20.88
2023-02-11T12:21:29.455Z,21.95
2023-02-11T12:24:41.455Z,23.67
2023-02-11T12:27:16.728Z,23.90
2023-02-11T12:29:49.144Z,26.77
2023-02-11T12:32:15.549Z,26.40
2023-02-11T12:34:51.053Z,24.92
2023-02-11T12:37:42.513Z,23.55
2023-02-11T12:40:20.205Z,20.70
2023-02-11T12:43:09.860Z,19.55
2023-02-11T12:46:02.574Z,19.58
2023-02-11T12:48:28.984Z,18.90
2023-02-11T12:51:04.480Z,20.75
2023-02-11T12:54:02.129Z,20.90
2023-02-11T12:56:38.681Z,17.70
2023-02-11T12:59:08.518Z,20.15
2023-02-11T13:01:41.008Z,20.90
2023-02-11T13:04:27.111Z,17.40
2023-02-11T13:07:02.186Z,17.83
2023-02-11T13:09:50.950Z,17.88
2023-02-11T13:12:36.046Z,16.88
2023-02-11T13:15:07.465Z,17.55
2023-02-11T13:17:41.183Z,16.95
2023-02-11T13:20:21.104Z,17.20
2023-02-11T13:23:05.820Z,16.17
2023-02-11T13:25:40.617Z,14.85
2023-02-11T13:28:28.664Z,11.77
2023-02-11T13:31:02.597Z,13.73
2023-02-11T13:33:37.398Z,13.93
2023-02-11T13:36:04.819Z,13.40
2023-02-11T13:38:32.402Z,13.35
2023-02-11T13:41:05.003Z,14.82
2023-02-11T13:43:33.617Z,12.68
2023-02-11T13:46:02.437Z,12.20
2023-02-11T13:48:30.983Z,13.43
2023-02-11T13:51:11.501Z,11.35
2023-02-11T13:53:56.846Z,14.10
2023-02-11T13:56:29.757Z,12.23
2023-02-11T13:59:00.146Z,11.02
2023-02-11T14:02:09.345Z,12.88
2023-02-11T14:04:54.427Z,13.15
2023-02-11T14:07:42.143Z,14.90
2023-02-11T14:10:42.431Z,13.45
2023-02-11T14:13:30.209Z,13.57
2023-02-11T14:16:20.295Z,12.65
2023-02-11T14:18:54.869Z,12.65
2023-02-11T14:21:27.286Z,13.98
2023-02-11T14:24:14.654Z,13.35
2023-02-11T14:26:48.104Z,12.98
2023-02-11T14:29:22.406Z,12.38
2023-02-11T14:32:08.873Z,13.90
2023-02-11T14:34:47.471Z,13.65
2023-02-11T14:37:50.319Z,14.32
2023-02-11T14:40:53.018Z,16.90
2023-02-11T14:43:29.708Z,15.75
2023-02-11T14:45:57.129Z,16.02
2023-02-11T14:48:30.332Z,14.75
2023-02-11T14:51:14.959Z,13.98
2023-02-11T14:53:45.859Z,15.18
2023-02-11T14:56:26.277Z,16.00
2023-02-11T14:58:54.266Z,17.40
2023-02-11T15:01:33.856Z,16.08
2023-02-11T15:04:02.771Z,15.68
2023-02-11T15:06:40.110Z,15.43
2023-02-11T15:09:45.254Z,17.92
2023-02-11T15:12:18.582Z,16.58
2023-02-11T15:14:49.803Z,33.03
2023-02-11T15:17:19.445Z,19.95
2023-02-11T15:19:48.444Z,16.15
2023-02-11T15:22:22.011Z,19.80
2023-02-11T15:25:19.746Z,18.70
2023-02-11T15:27:52.717Z,17.98
2023-02-11T15:30:22.065Z,17.45
2023-02-11T15:33:07.499Z,17.13
2023-02-11T15:35:37.509Z,17.73
2023-02-11T15:38:04.770Z,15.23
2023-02-11T15:40:33.422Z,16.95
2023-02-11T15:43:04.934Z,18.55
2023-02-11T15:45:43.864Z,17.05
2023-02-11T15:48:20.369Z,19.02
2023-02-11T15:50:55.917Z,19.90
2023-02-11T15:53:27.726Z,20.30
2023-02-11T15:56:01.985Z,22.50
2023-02-11T15:58:28.543Z,23.33
2023-02-11T16:00:59.576Z,22.58
2023-02-11T16:03:32.267Z,20.95
2023-02-11T16:06:21.393Z,21.42
2023-02-11T16:09:05.102Z,21.27
2023-02-11T16:11:34.292Z,20.13
2023-02-11T16:14:04.097Z,20.10
2023-02-11T16:16:33.775Z,21.15
2023-02-11T16:19:05.360Z,19.25
2023-02-11T16:21:42.336Z,23.67
2023-02-11T16:24:18.481Z,22.90
2023-02-11T16:26:49.127Z,21.88
2023-02-11T16:29:17.743Z,20.85
2023-02-11T16:31:46.167Z,22.27
2023-02-11T16:34:21.489Z,20.55
2023-02-11T16:36:49.108Z,24.13
2023-02-11T16:39:16.834Z,22.92
2023-02-11T16:41:43.540Z,20.75
2023-02-11T16:44:09.965Z,23.40
2023-02-11T16:46:37.053Z,22.92
2023-02-11T16:49:19.699Z,23.77
2023-02-11T16:51:48.253Z,22.75
2023-02-11T16:54:16.318Z,22.95
2023-02-11T16:56:43.138Z,24.15
2023-02-11T16:59:09.918Z,23.40
2023-02-11T17:01:38.225Z,24.27
2023-02-11T17:04:05.660Z,35.58
2023-02-11T17:06:33.821Z,38.50
2023-02-11T17:09:00.403Z,27.15
2023-02-11T17:11:26.856Z,26.48
2023-02-11T17:13:53.291Z,26.60
2023-02-11T17:16:22.536Z,26.50
2023-02-11T17:18:49.509Z,29.73
2023-02-11T17:21:16.215Z,26.65
2023-02-11T17:23:42.798Z,26.10
2023-02-11T17:26:09.474Z,22.25
2023-02-11T17:28:35.971Z,22.48
2023-02-11T17:31:07.112Z,27.00
2023-02-11T17:33:36.120Z,42.78
2023-02-11T17:36:07.512Z,29.42
2023-02-11T17:38:34.782Z,26.83
2023-02-11T17:41:02.144Z,25.60
2023-02-11T17:43:28.729Z,23.88
2023-02-11T17:45:55.268Z,33.90
2023-02-11T17:48:21.818Z,27.52
2023-02-11T17:50:48.283Z,28.23
2023-02-11T17:53:14.796Z,22.55
2023-02-11T17:55:41.257Z,24.05
2023-02-11T17:58:07.652Z,22.13
2023-02-11T18:00:34.165Z,22.98
2023-02-11T18:03:03.639Z,22.00
2023-02-11T18:05:36.786Z,22.50
2023-02-11T18:08:05.260Z,30.00
2023-02-11T18:10:33.433Z,26.75
2023-02-11T18:13:00.892Z,24.98
2023-02-11T18:15:27.331Z,28.05
2023-02-11T18:17:53.766Z,27.30
2023-02-11T18:20:20.435Z,29.95
2023-02-11T18:22:46.826Z,31.58
2023-02-11T18:25:16.462Z,30.05
2023-02-11T18:27:43.013Z,30.27
2023-02-11T18:30:14.824Z,29.27
2023-02-11T18:32:41.530Z,28.48
2023-02-11T18:35:14.839Z,28.45
2023-02-11T18:37:42.466Z,31.15
2023-02-11T18:40:10.299Z,30.00
2023-02-11T18:42:36.788Z,29.52
2023-02-11T18:45:04.654Z,32.55
2023-02-11T18:47:31.457Z,31.00
2023-02-11T18:49:57.861Z,34.83
2023-02-11T18:52:24.276Z,29.05
2023-02-11T18:54:52.235Z,31.85
2023-02-11T18:57:18.696Z,30.90
2023-02-11T18:59:45.111Z,30.73
2023-02-11T19:02:11.646Z,32.97
2023-02-11T19:04:38.319Z,29.95
2023-02-11T19:07:04.815Z,31.35
2023-02-11T19:09:31.360Z,32.13
2023-02-11T19:11:59.786Z,34.30
2023-02-11T19:14:36.999Z,32.28
2023-02-11T19:17:06.073Z,32.85
2023-02-11T19:19:34.332Z,29.17
2023-02-11T19:22:01.583Z,30.55
2023-02-11T19:24:29.227Z,29.40
2023-02-11T19:27:01.222Z,31.38
2023-02-11T19:29:28.704Z,32.30
2023-02-11T19:31:55.674Z,29.88
2023-02-11T19:34:22.281Z,31.48
2023-02-11T19:36:49.625Z,31.00
2023-02-11T19:39:16.441Z,32.80
2023-02-11T19:41:43.015Z,29.10
2023-02-11T19:44:09.895Z,28.92
2023-02-11T19:46:38.327Z,28.60
2023-02-11T19:49:05.221Z,29.45
2023-02-11T19:51:39.024Z,27.98
2023-02-11T19:54:06.746Z,29.58
2023-02-11T19:56:33.234Z,26.02
2023-02-11T19:59:02.004Z,26.15
2023-02-11T20:01:28.430Z,30.40
2023-02-11T20:03:57.185Z,33.90
2023-02-11T20:06:26.301Z,34.45
2023-02-11T20:08:58.779Z,31.25
2023-02-11T20:11:26.868Z,31.85
2023-02-11T20:13:53.694Z,28.77
2023-02-11T20:16:21.828Z,29.60
2023-02-11T20:18:49.319Z,30.30
2023-02-11T20:21:33.809Z,26.20
2023-02-11T20:24:01.062Z,32.22
2023-02-11T20:26:32.152Z,32.20
2023-02-11T20:29:02.175Z,34.38
2023-02-11T20:31:33.109Z,33.63
2023-02-11T20:34:01.041Z,28.25
2023-02-11T20:36:31.851Z,32.72
2023-02-11T20:38:59.792Z,31.50
2023-02-11T20:41:29.338Z,32.63
2023-02-11T20:43:56.040Z,28.70
2023-02-11T20:46:24.511Z,32.35
2023-02-11T20:48:52.332Z,29.48
2023-02-11T20:51:22.927Z,25.77
2023-02-11T20:53:51.237Z,28.80
2023-02-11T20:56:20.230Z,29.88
2023-02-11T20:58:47.062Z,29.48
2023-02-11T21:01:18.393Z,29.92
2023-02-11T21:03:49.619Z,31.13
2023-02-11T21:06:16.338Z,36.90
2023-02-11T21:08:42.771Z,36.10
2023-02-11T21:11:09.296Z,30.90
2023-02-11T21:13:36.989Z,32.03
2023-02-11T21:16:03.782Z,30.65
2023-02-11T21:18:30.286Z,32.92
2023-02-11T21:20:57.392Z,29.90
2023-02-11T21:23:24.740Z,30.20
2023-02-11T21:25:53.267Z,28.42
2023-02-11T21:28:23.912Z,32.58
2023-02-11T21:30:50.366Z,32.08
2023-02-11T21:33:16.825Z,30.05
2023-02-11T21:35:43.334Z,33.60
2023-02-11T21:38:09.729Z,31.50
2023-02-11T21:40:36.274Z,32.15
2023-02-11T21:43:02.677Z,34.55
2023-02-11T21:45:31.409Z,30.45
2023-02-11T21:47:58.915Z,28.05
2023-02-11T21:50:25.316Z,31.58
2023-02-11T21:52:52.881Z,32.88
2023-02-11T21:55:19.311Z,32.30
2023-02-11T21:57:45.706Z,33.30
2023-02-11T22:00:12.938Z,32.42
2023-02-11T22:02:39.387Z,32.65
2023-02-11T22:05:06.093Z,35.30
2023-02-11T22:07:35.148Z,35.42
2023-02-11T22:10:01.588Z,32.92
2023-02-11T22:12:27.996Z,33.60
2023-02-11T22:14:54.379Z,36.72
2023-02-11T22:17:20.936Z,39.15
2023-02-11T22:19:47.339Z,40.60
2023-02-11T22:22:18.084Z,42.50
2023-02-11T22:24:47.924Z,41.75
2023-02-11T22:27:15.284Z,44.78
2023-02-11T22:29:41.977Z,47.22
2023-02-11T22:32:08.995Z,51.03
2023-02-11T22:34:35.788Z,43.80
2023-02-11T22:37:04.927Z,44.38
2023-02-11T22:39:31.388Z,40.20
2023-02-11T22:41:57.838Z,40.10
2023-02-11T22:44:24.910Z,41.63
2023-02-11T22:46:51.906Z,39.40
2023-02-11T22:49:19.962Z,38.70
2023-02-11T22:51:46.565Z,38.67
2023-02-11T22:54:16.439Z,35.75
2023-02-11T22:56:43.363Z,35.28
2023-02-11T22:59:15.336Z,36.92
2023-02-11T23:01:42.683Z,38.55
2023-02-11T23:04:11.902Z,37.13
2023-02-11T23:06:38.358Z,41.10
2023-02-11T23:09:08.882Z,37.80
2023-02-11T23:11:35.641Z,39.42
2023-02-11T23:14:02.541Z,40.28
2023-02-11T23:16:33.928Z,43.05
2023-02-11T23:19:02.192Z,38.58
2023-02-11T23:21:31.085Z,38.67
2023-02-11T23:24:04.083Z,38.50
2023-02-11T23:26:30.533Z,34.75
2023-02-11T23:28:58.408Z,39.22
2023-02-11T23:31:26.149Z,38.92
2023-02-11T23:33:52.738Z,41.20
2023-02-11T23:36:20.684Z,37.25
2023-02-11T23:38:47.866Z,40.00
2023-02-11T23:41:14.770Z,38.67
2023-02-11T23:43:41.525Z,35.00
2023-02-11T23:46:08.600Z,35.25
2023-02-11T23:48:36.542Z,37.95
2023-02-11T23:51:03.573Z,33.33
2023-02-11T23:53:30.006Z,36.83
2023-02-11T23:55:56.738Z,40.90
2023-02-11T23:58:23.258Z,36.25
